Time;durP1;ratioP1;P1;durP2;ratioP2;P2;SDS_P1;SDS_P2;PMS_P1;PMS_P2;Temp;Humidity;BMP_temperature;BMP_pressure;BME280_temperature;BME280_humidity;BME280_pressure;Samples;Min_cycle;Max_cycle;Signal;HPM_P1;HPM_P2
2022/05/16 00:02:34;;;;;;;5.45;2.17;;;;;;;13.02;96.78;100861.56;6031074;29;20057;-89
2022/05/16 00:05:37;;;;;;;4.55;2.15;;;;;;;13.02;96.64;100859.81;6026756;29;20156;-88
2022/05/16 00:08:38;;;;;;;3.47;1.67;;;;;;;13.02;96.44;100862.41;6023448;29;20506;-89
2022/05/16 00:11:41;;;;;;;8.13;2.17;;;;;;;13.03;97.08;100856.25;6026025;29;20053;-88
2022/05/16 00:14:44;;;;;;;5.75;2.20;;;;;;;12.92;97.34;100854.56;6023498;29;20044;-89
2022/05/16 00:17:46;;;;;;;4.68;2.20;;;;;;;12.87;97.21;100864.53;6031774;29;20045;-89
2022/05/16 00:20:51;;;;;;;4.38;2.05;;;;;;;12.83;98.80;100862.31;6029579;29;20476;-89
2022/05/16 00:23:52;;;;;;;3.25;2.10;;;;;;;12.75;99.59;100860.34;6023800;29;20169;-89
2022/05/16 00:26:56;;;;;;;4.32;2.15;;;;;;;12.66;98.97;100854.13;6024799;29;20169;-89
2022/05/16 00:29:58;;;;;;;4.88;2.58;;;;;;;12.57;100.00;100852.31;6024924;29;20060;-89
2022/05/16 00:33:00;;;;;;;5.30;2.35;;;;;;;12.50;100.00;100843.38;6037375;29;20056;-89
2022/05/16 00:36:02;;;;;;;4.05;2.20;;;;;;;12.42;100.00;100838.81;6030742;29;20675;-89
2022/05/16 00:39:03;;;;;;;6.13;2.50;;;;;;;12.37;100.00;100837.50;6021698;29;20045;-89
2022/05/16 00:42:05;;;;;;;5.15;2.88;;;;;;;12.33;100.00;100841.31;6019065;29;20389;-89
2022/05/16 00:45:09;;;;;;;5.53;2.47;;;;;;;12.25;100.00;100842.75;6023931;29;20122;-88
2022/05/16 00:48:11;;;;;;;6.25;2.20;;;;;;;12.20;100.00;100847.50;6033506;29;20098;-89
2022/05/16 00:51:26;;;;;;;4.75;2.60;;;;;;;12.18;100.00;100831.22;6024290;29;20136;-89
2022/05/16 00:54:35;;;;;;;5.75;2.40;;;;;;;12.12;100.00;100828.28;6028063;29;20049;-89
2022/05/16 00:57:48;;;;;;;5.20;2.33;;;;;;;12.07;100.00;100826.06;6036149;29;20055;-89
2022/05/16 01:00:50;;;;;;;6.15;2.70;;;;;;;12.03;100.00;100812.53;6036225;29;20049;-89
2022/05/16 01:07:41;;;;;;;3.95;2.45;;;;;;;11.93;100.00;100816.00;6021717;29;20576;-89
2022/05/16 01:10:44;;;;;;;4.10;2.30;;;;;;;11.88;100.00;100810.34;6030211;29;20071;-88
2022/05/16 01:13:46;;;;;;;6.00;2.50;;;;;;;11.87;100.00;100811.28;6016744;29;20054;-89
2022/05/16 01:16:48;;;;;;;7.28;3.00;;;;;;;11.83;100.00;100805.50;6029633;29;20571;-89
2022/05/16 01:19:51;;;;;;;7.57;2.72;;;;;;;11.82;100.00;100799.47;6032931;29;20273;-89
2022/05/16 01:22:53;;;;;;;6.35;2.65;;;;;;;11.76;100.00;100789.59;6004728;29;20507;-89
2022/05/16 01:25:58;;;;;;;5.00;2.67;;;;;;;11.77;100.00;100793.81;6029715;29;20049;-89
2022/05/16 01:29:00;;;;;;;5.10;2.58;;;;;;;11.77;100.00;100793.00;6014119;29;20096;-89
2022/05/16 01:32:02;;;;;;;5.72;2.88;;;;;;;11.71;100.00;100789.13;6020963;29;20507;-89
2022/05/16 01:35:05;;;;;;;6.60;3.10;;;;;;;11.69;100.00;100792.78;6021833;29;20053;-89
2022/05/16 01:38:19;;;;;;;5.75;2.70;;;;;;;11.67;100.00;100795.50;6023512;29;20047;-89
2022/05/16 01:41:23;;;;;;;6.10;2.90;;;;;;;11.59;100.00;100792.69;6032427;29;20229;-89
2022/05/16 01:44:25;;;;;;;5.82;2.53;;;;;;;11.55;100.00;100799.06;6042687;29;20041;-86
2022/05/16 01:47:27;;;;;;;5.32;2.70;;;;;;;11.53;100.00;100796.59;6005866;29;20044;-87
2022/05/16 01:50:29;;;;;;;6.72;3.13;;;;;;;11.47;100.00;100796.25;6023542;29;20041;-86
2022/05/16 01:53:31;;;;;;;5.65;2.50;;;;;;;11.42;100.00;100801.78;6021937;29;20102;-86
2022/05/16 01:56:35;;;;;;;4.50;2.40;;;;;;;11.39;100.00;100797.66;6034105;29;20173;-87
2022/05/16 01:59:37;;;;;;;3.60;2.55;;;;;;;11.35;100.00;100800.63;6036054;29;20038;-86
2022/05/16 02:02:42;;;;;;;6.25;2.67;;;;;;;11.35;100.00;100798.03;6018081;29;20510;-86
2022/05/16 02:05:45;;;;;;;5.22;2.58;;;;;;;11.31;100.00;100797.44;6033309;29;20057;-86
2022/05/16 02:08:48;;;;;;;6.20;2.58;;;;;;;11.26;100.00;100788.41;6029164;29;20048;-86
2022/05/16 02:11:50;;;;;;;5.28;2.72;;;;;;;11.23;100.00;100776.50;6031584;29;20185;-87
2022/05/16 02:14:51;;;;;;;6.00;2.47;;;;;;;11.18;100.00;100763.91;6041643;29;20052;-87
2022/05/16 02:17:54;;;;;;;5.68;2.20;;;;;;;11.18;100.00;100774.25;6022692;29;20040;-86
2022/05/16 02:24:38;;;;;;;7.00;2.60;;;;;;;11.14;100.00;100766.84;6037938;29;20037;-87
2022/05/16 02:27:40;;;;;;;6.03;2.50;;;;;;;11.10;100.00;100753.28;6035723;29;20041;-86
2022/05/16 02:30:42;;;;;;;5.85;2.55;;;;;;;11.08;100.00;100741.38;6032168;29;20232;-86
2022/05/16 02:33:44;;;;;;;4.78;2.17;;;;;;;11.02;100.00;100752.25;6008987;29;20534;-87
2022/05/16 02:36:46;;;;;;;8.32;2.42;;;;;;;11.02;100.00;100752.25;6019652;29;20132;-87
2022/05/16 02:39:48;;;;;;;3.67;2.17;;;;;;;10.99;100.00;100758.47;6029163;29;20446;-87
2022/05/16 02:42:50;;;;;;;3.88;2.10;;;;;;;10.98;100.00;100755.06;6027717;29;20128;-86
2022/05/16 02:45:52;;;;;;;5.00;2.22;;;;;;;10.98;100.00;100756.81;6024040;29;20080;-86
2022/05/16 02:48:55;;;;;;;5.65;2.35;;;;;;;10.89;100.00;100760.97;6046405;29;20064;-87
2022/05/16 02:51:56;;;;;;;4.63;2.10;;;;;;;10.83;100.00;100758.00;6041265;29;20048;-87
2022/05/16 02:55:00;;;;;;;3.15;2.20;;;;;;;10.82;100.00;100751.19;6035478;29;20053;-87
2022/05/16 02:58:03;;;;;;;4.30;2.35;;;;;;;10.85;100.00;100759.53;6036676;29;20052;-87
2022/05/16 03:01:05;;;;;;;3.72;2.67;;;;;;;10.85;100.00;100762.13;6031361;29;20049;-86
2022/05/16 03:04:06;;;;;;;5.72;2.33;;;;;;;10.84;100.00;100752.72;6008675;29;20041;-87
2022/05/16 03:07:08;;;;;;;4.00;1.90;;;;;;;10.81;100.00;100747.78;6025097;29;20049;-86
2022/05/16 03:10:15;;;;;;;3.53;2.22;;;;;;;10.81;100.00;100757.28;6027233;29;20728;-86
2022/05/16 03:13:17;;;;;;;5.55;2.30;;;;;;;10.75;100.00;100746.47;6032333;29;20052;-86
2022/05/16 03:16:19;;;;;;;7.20;3.33;;;;;;;10.76;100.00;100744.72;6002533;29;20046;-87
2022/05/16 03:19:21;;;;;;;4.28;2.75;;;;;;;10.73;100.00;100737.16;6041403;29;20052;-87
2022/05/16 03:22:23;;;;;;;5.00;2.20;;;;;;;10.75;100.00;100735.28;6021969;29;20165;-86
2022/05/16 03:25:25;;;;;;;3.47;1.77;;;;;;;10.75;100.00;100728.34;6019149;29;20052;-87
2022/05/16 03:28:27;;;;;;;4.72;2.10;;;;;;;10.79;100.00;100734.13;6027407;29;20097;-86
2022/05/16 03:31:29;;;;;;;4.38;2.08;;;;;;;10.76;100.00;100729.19;6024027;29;20041;-86
2022/05/16 03:34:30;;;;;;;3.53;2.30;;;;;;;10.75;100.00;100730.09;6019143;29;20050;-86
2022/05/16 03:37:32;;;;;;;3.28;2.03;;;;;;;10.73;100.00;100726.81;6020295;29;20054;-87
2022/05/16 03:40:45;;;;;;;3.65;2.17;;;;;;;10.75;100.00;100735.28;6037062;29;20494;-87
2022/05/16 03:43:47;;;;;;;6.22;1.98;;;;;;;10.74;100.00;100729.28;6011880;29;20053;-87
2022/05/16 03:46:49;;;;;;;2.97;1.80;;;;;;;10.74;100.00;100720.69;6024296;29;20523;-87
2022/05/16 03:49:51;;;;;;;2.80;2.10;;;;;;;10.76;100.00;100718.81;6032774;29;20226;-87
2022/05/16 03:52:53;;;;;;;5.07;1.77;;;;;;;10.74;100.00;100718.94;5996445;29;20057;-87
2022/05/16 03:55:55;;;;;;;2.72;1.95;;;;;;;10.78;100.00;100710.00;6024487;29;20555;-86
2022/05/16 03:58:58;;;;;;;4.07;2.05;;;;;;;10.77;100.00;100708.34;6018931;29;20056;-87
2022/05/16 04:02:00;;;;;;;6.15;1.92;;;;;;;10.80;100.00;100704.69;6025300;29;20050;-87
2022/05/16 04:05:02;;;;;;;3.00;1.70;;;;;;;10.80;100.00;100707.28;6034589;29;20049;-86
2022/05/16 04:08:05;;;;;;;4.25;1.90;;;;;;;10.85;100.00;100699.16;6036874;29;20542;-86
2022/05/16 04:11:08;;;;;;;3.72;2.20;;;;;;;10.88;100.00;100702.34;6036576;29;20073;-86
2022/05/16 04:14:10;;;;;;;2.22;1.90;;;;;;;10.89;100.00;100703.16;6025404;29;20051;-87
2022/05/16 04:17:12;;;;;;;3.65;1.90;;;;;;;10.92;100.00;100698.56;6014661;29;20052;-86
2022/05/16 04:20:15;;;;;;;2.97;1.80;;;;;;;10.94;100.00;100682.91;6030867;29;20077;-87
2022/05/16 04:23:18;;;;;;;5.20;2.40;;;;;;;10.96;100.00;100699.16;6026686;29;20562;-87
2022/05/16 04:26:20;;;;;;;2.35;2.05;;;;;;;11.01;100.00;100693.63;6021913;29;20520;-86
2022/05/16 04:29:22;;;;;;;4.35;2.05;;;;;;;11.01;100.00;100706.56;6015991;29;20049;-86
2022/05/16 04:32:24;;;;;;;2.92;1.88;;;;;;;11.00;100.00;100695.38;6029003;29;20512;-87
2022/05/16 04:35:26;;;;;;;3.47;2.10;;;;;;;11.06;100.00;100704.44;6036641;29;20049;-86
2022/05/16 04:38:28;;;;;;;3.83;1.90;;;;;;;11.06;100.00;100697.50;6025635;29;20053;-87
2022/05/16 04:44:50;;;;;;;3.28;1.90;;;;;;;11.09;100.00;100705.03;6025052;29;20041;-87
2022/05/16 04:47:56;;;;;;;4.68;2.10;;;;;;;11.15;100.00;100701.94;6027803;29;20539;-86
2022/05/16 04:50:59;;;;;;;4.95;2.20;;;;;;;11.18;100.00;100703.50;6039339;29;20116;-86
2022/05/16 04:54:02;;;;;;;5.10;2.00;;;;;;;11.19;100.00;100697.34;6021975;29;20081;-87
2022/05/16 04:57:04;;;;;;;2.65;2.10;;;;;;;11.25;100.00;100706.41;6015513;29;20477;-87
2022/05/16 05:00:08;;;;;;;5.25;2.05;;;;;;;11.25;100.00;100704.63;6028215;29;20178;-86
2022/05/16 05:03:10;;;;;;;3.63;2.00;;;;;;;11.31;100.00;100706.75;6030686;29;20042;-86
2022/05/16 05:06:12;;;;;;;3.85;1.98;;;;;;;11.39;100.00;100713.91;6042877;29;20041;-87
2022/05/16 05:09:14;;;;;;;5.40;2.20;;;;;;;11.41;100.00;100707.66;6038230;29;20044;-87
2022/05/16 05:15:38;;;;;;;4.95;2.28;;;;;;;11.54;100.00;100712.69;6022388;29;20129;-86
2022/05/16 05:18:40;;;;;;;3.47;2.65;;;;;;;11.55;100.00;100709.16;6017621;29;20056;-87
2022/05/16 05:21:42;;;;;;;3.60;2.30;;;;;;;11.60;100.00;100703.59;6031581;29;20060;-87
2022/05/16 05:24:44;;;;;;;2.78;1.98;;;;;;;11.65;100.00;100704.03;6032366;29;20608;-87
2022/05/16 05:27:54;;;;;;;2.92;2.20;;;;;;;11.77;100.00;100705.63;6020579;29;20052;-87
2022/05/16 05:30:56;;;;;;;3.10;2.17;;;;;;;11.81;100.00;100706.22;6030343;29;20105;-87
2022/05/16 05:33:58;;;;;;;3.85;2.35;;;;;;;11.88;100.00;100710.00;6038287;29;20097;-87
2022/05/16 05:37:00;;;;;;;2.42;2.05;;;;;;;11.93;100.00;100712.22;6028331;29;21103;-86
2022/05/16 05:40:04;;;;;;;3.33;2.70;;;;;;;11.97;100.00;100700.63;6033892;29;20045;-87
2022/05/16 05:43:07;;;;;;;3.28;2.15;;;;;;;12.03;100.00;100706.16;6018177;29;20055;-87
2022/05/16 05:46:09;;;;;;;3.60;2.42;;;;;;;12.12;100.00;100694.19;6014714;29;20112;-87
2022/05/16 05:49:12;;;;;;;4.53;1.90;;;;;;;12.18;100.00;100692.88;6040280;29;20607;-86
2022/05/16 05:52:17;;;;;;;6.05;2.15;;;;;;;12.21;100.00;100706.41;6039683;29;20063;-87
2022/05/16 05:55:19;;;;;;;4.25;2.20;;;;;;;12.27;100.00;100712.84;6030245;29;20060;-87
2022/05/16 05:58:22;;;;;;;5.15;2.90;;;;;;;12.35;100.00;100717.44;6023800;29;20042;-87
2022/05/16 06:01:24;;;;;;;6.25;2.53;;;;;;;12.41;100.00;100715.13;6027212;29;20344;-87
2022/05/16 06:04:27;;;;;;;4.47;2.28;;;;;;;12.49;100.00;100710.09;6026702;29;20588;-87
2022/05/16 06:07:28;;;;;;;5.68;2.60;;;;;;;12.54;100.00;100709.72;6033236;29;20492;-87
2022/05/16 06:10:30;;;;;;;5.30;2.85;;;;;;;12.62;100.00;100709.91;6032047;29;20045;-87
2022/05/16 06:13:32;;;;;;;5.07;2.55;;;;;;;12.73;100.00;100708.16;6025982;29;20046;-87
2022/05/16 06:16:35;;;;;;;5.57;2.60;;;;;;;12.80;100.00;100711.91;6030707;29;20060;-87
2022/05/16 06:19:37;;;;;;;6.53;2.65;;;;;;;12.87;100.00;100713.03;6031219;29;21177;-87
2022/05/16 06:22:39;;;;;;;7.85;3.00;;;;;;;12.93;100.00;100715.06;6027857;29;20148;-87
2022/05/16 06:25:44;;;;;;;6.22;3.30;;;;;;;12.99;99.80;100716.31;6031414;29;20110;-87
2022/05/16 06:28:46;;;;;;;4.38;3.03;;;;;;;13.05;100.00;100713.19;6004324;29;20068;-86
2022/05/16 06:31:48;;;;;;;4.63;2.97;;;;;;;13.13;100.00;100715.94;6010652;29;20053;-88
2022/05/16 06:34:51;;;;;;;5.05;2.65;;;;;;;13.15;100.00;100721.84;6039228;29;20089;-87
2022/05/16 06:37:53;;;;;;;4.75;2.97;;;;;;;13.22;97.99;100715.16;6029139;29;20638;-87
2022/05/16 06:40:56;;;;;;;8.35;2.75;;;;;;;13.34;96.60;100718.47;6029245;29;20484;-87
2022/05/16 06:43:58;;;;;;;4.97;2.72;;;;;;;13.41;98.11;100719.59;6030076;29;20048;-87
2022/05/16 06:47:01;;;;;;;5.07;2.50;;;;;;;13.48;97.26;100710.28;6037823;29;20048;-87
2022/05/16 06:50:04;;;;;;;5.95;3.30;;;;;;;13.57;96.41;100713.88;6037526;29;20056;-87
2022/05/16 06:53:09;;;;;;;5.03;2.85;;;;;;;13.68;96.05;100702.50;6023227;29;20507;-87
2022/05/16 06:56:10;;;;;;;4.55;2.80;;;;;;;13.82;93.85;100699.50;6028790;29;20052;-87
2022/05/16 06:59:12;;;;;;;5.32;2.85;;;;;;;13.92;93.80;100697.69;6042795;29;20053;-86
2022/05/16 07:02:15;;;;;;;4.38;2.55;;;;;;;14.00;94.02;100699.59;6025115;29;20044;-87
2022/05/16 07:05:18;;;;;;;3.63;2.67;;;;;;;14.20;92.56;100687.38;6018839;29;20645;-87
2022/05/16 07:08:22;;;;;;;4.88;2.90;;;;;;;14.47;92.10;100683.19;6030393;29;20127;-87
2022/05/16 07:11:23;;;;;;;8.23;2.92;;;;;;;14.77;89.78;100674.31;6031444;29;20049;-87
2022/05/16 07:14:25;;;;;;;4.55;2.55;;;;;;;14.98;88.86;100676.66;6033674;29;20116;-86
2022/05/16 07:17:27;;;;;;;5.10;2.90;;;;;;;15.14;88.31;100686.47;6026396;29;20138;-86
2022/05/16 07:20:29;;;;;;;4.80;2.67;;;;;;;15.24;87.65;100684.63;6007810;29;20116;-86
2022/05/16 07:23:31;;;;;;;5.53;2.60;;;;;;;15.36;87.26;100673.00;6035325;29;20041;-86
2022/05/16 07:29:54;;;;;;;6.55;2.70;;;;;;;15.55;85.57;100665.97;6036907;29;20518;-86
2022/05/16 07:32:56;;;;;;;5.28;2.58;;;;;;;15.51;84.28;100668.09;6034989;29;20056;-86
2022/05/16 07:35:58;;;;;;;5.20;2.33;;;;;;;15.48;84.58;100655.34;6038950;29;20128;-86
2022/05/16 07:39:01;;;;;;;6.00;2.70;;;;;;;15.63;85.37;100655.63;6030625;29;20134;-86
2022/05/16 07:42:07;;;;;;;6.68;2.60;;;;;;;15.81;85.47;100658.25;6034617;29;20601;-86
2022/05/16 07:45:09;;;;;;;6.68;2.92;;;;;;;15.93;85.30;100659.63;6029296;29;20579;-86
2022/05/16 07:48:12;;;;;;;9.18;2.75;;;;;;;15.99;86.02;100659.00;6026087;29;20407;-86
2022/05/16 07:51:14;;;;;;;6.82;2.50;;;;;;;16.06;85.29;100656.63;6036935;29;20053;-86
2022/05/16 07:54:16;;;;;;;4.03;2.35;;;;;;;16.14;85.96;100654.84;6029012;29;20046;-86
2022/05/16 07:57:18;;;;;;;7.10;2.70;;;;;;;16.23;85.24;100655.75;6028307;29;20053;-86
2022/05/16 08:00:22;;;;;;;6.03;3.05;;;;;;;16.36;84.84;100652.69;6025454;29;20595;-86
2022/05/16 08:03:27;;;;;;;5.60;2.97;;;;;;;16.49;84.16;100650.47;6023968;29;20049;-86
2022/05/16 08:06:28;;;;;;;3.90;2.80;;;;;;;16.65;80.47;100647.13;6037685;29;20154;-86
2022/05/16 08:12:51;;;;;;;7.90;3.17;;;;;;;17.05;79.88;100647.44;6022689;29;20092;-86
2022/05/16 08:15:53;;;;;;;3.50;2.60;;;;;;;17.12;78.94;100645.81;6030592;29;20056;-86
2022/05/16 08:18:56;;;;;;;8.23;2.83;;;;;;;17.30;79.51;100656.94;6034027;29;20056;-86
2022/05/16 08:21:58;;;;;;;5.45;2.83;;;;;;;17.40;78.48;100656.78;6028276;29;20041;-86
2022/05/16 08:25:00;;;;;;;6.93;2.75;;;;;;;17.56;79.23;100651.56;6021916;29;20051;-86
2022/05/16 08:28:07;;;;;;;6.03;3.15;;;;;;;17.67;77.47;100655.66;6027682;29;20056;-86
2022/05/16 08:31:09;;;;;;;8.82;3.33;;;;;;;17.78;79.57;100655.31;6025335;29;20105;-86
2022/05/16 08:34:11;;;;;;;5.43;3.45;;;;;;;17.88;78.60;100652.56;6029088;29;20408;-86
2022/05/16 08:40:53;;;;;;;7.07;2.92;;;;;;;18.28;77.82;100646.44;6019711;29;20883;-86
2022/05/16 08:44:12;;;;;;;7.03;3.10;;;;;;;18.44;76.18;100642.94;6034162;29;20046;-85
2022/05/16 08:47:14;;;;;;;6.95;2.72;;;;;;;18.62;75.63;100645.31;6027727;29;20049;-85
2022/05/16 08:50:19;;;;;;;6.35;2.63;;;;;;;18.70;75.55;100647.88;6039128;29;20057;-85
2022/05/16 08:53:58;;;;;;;6.95;2.72;;;;;;;18.82;74.76;100642.28;6037005;29;20041;-86
2022/05/16 08:57:04;;;;;;;4.88;2.40;;;;;;;19.01;75.37;100636.63;6028241;29;20047;-86
2022/05/16 09:00:15;;;;;;;3.97;2.42;;;;;;;19.16;72.24;100641.94;6018447;29;20045;-85
2022/05/16 09:03:23;;;;;;;5.47;2.20;;;;;;;19.26;69.19;100639.88;6027711;29;20747;-86
2022/05/16 09:06:34;;;;;;;5.70;2.53;;;;;;;19.41;70.07;100644.38;6025250;29;20048;-85
2022/05/16 09:09:42;;;;;;;5.47;2.10;;;;;;;19.56;69.51;100638.16;6030580;29;20057;-86
2022/05/16 09:13:26;;;;;;;4.72;2.35;;;;;;;19.64;67.66;100639.09;6037279;29;20970;-86
2022/05/16 09:16:47;;;;;;;7.00;2.67;;;;;;;19.82;69.83;100639.59;6032903;29;20088;-86
2022/05/16 09:20:27;;;;;;;5.00;2.30;;;;;;;19.99;72.33;100622.69;6017369;29;20090;-86
2022/05/16 09:23:51;;;;;;;9.05;2.78;;;;;;;20.24;67.43;100611.91;6033147;29;20045;-86
2022/05/16 09:27:01;;;;;;;3.92;2.22;;;;;;;20.42;71.65;100622.88;6034722;29;20057;-86
2022/05/16 09:30:06;;;;;;;7.40;2.28;;;;;;;20.57;66.58;100628.13;6037381;29;20052;-86
2022/05/16 09:33:21;;;;;;;4.05;2.72;;;;;;;20.84;66.51;100629.25;6037621;29;20053;-86
2022/05/16 09:36:26;;;;;;;5.60;2.80;;;;;;;21.09;63.84;100626.25;6035369;29;20056;-86
2022/05/16 09:39:38;;;;;;;3.28;2.20;;;;;;;21.29;67.25;100629.91;6028216;29;20045;-86
2022/05/16 09:42:40;;;;;;;5.85;2.30;;;;;;;21.50;67.44;100623.81;6033528;29;20587;-87
2022/05/16 09:45:46;;;;;;;6.95;2.28;;;;;;;21.69;62.93;100627.63;6025579;29;20075;-85
2022/05/16 09:49:01;;;;;;;4.82;2.70;;;;;;;21.93;65.52;100628.16;6018609;29;20061;-86
2022/05/16 09:52:03;;;;;;;6.90;2.47;;;;;;;22.06;63.41;100635.34;6020584;29;20188;-87
2022/05/16 09:55:10;;;;;;;5.68;2.85;;;;;;;21.92;63.43;100629.19;6027563;29;21321;-86
2022/05/16 09:58:19;;;;;;;5.82;2.30;;;;;;;21.79;63.54;100621.19;6029383;29;20388;-86
2022/05/16 10:01:45;;;;;;;5.55;2.50;;;;;;;21.84;63.76;100618.81;6015587;29;20096;-86
2022/05/16 10:05:01;;;;;;;4.65;2.42;;;;;;;21.96;61.51;100622.50;6034939;29;20049;-86
2022/05/16 10:08:13;;;;;;;4.88;2.83;;;;;;;22.19;60.33;100622.25;6033170;29;20048;-86
2022/05/16 10:11:26;;;;;;;4.60;2.38;;;;;;;22.34;62.72;100619.50;6024863;29;20056;-87
2022/05/16 10:14:29;;;;;;;4.07;2.67;;;;;;;22.46;60.97;100614.47;6026409;29;20504;-87
2022/05/16 10:17:36;;;;;;;7.15;2.65;;;;;;;22.68;62.67;100615.16;6022303;29;20144;-86
2022/05/16 10:20:48;;;;;;;7.05;2.95;;;;;;;22.89;59.34;100606.28;6026840;29;20519;-87
2022/05/16 10:23:52;;;;;;;8.40;2.70;;;;;;;23.13;58.52;100600.47;6028859;29;20057;-87
2022/05/16 10:26:57;;;;;;;7.75;2.38;;;;;;;23.36;56.85;100601.91;6014703;29;20053;-87
2022/05/16 10:30:04;;;;;;;7.68;3.08;;;;;;;23.62;57.31;100593.94;6027651;29;20040;-87
2022/05/16 10:36:30;;;;;;;5.68;2.40;;;;;;;24.06;52.73;100592.44;6031020;29;20558;-87
2022/05/16 10:39:37;;;;;;;4.22;2.55;;;;;;;24.18;51.46;100595.25;6023366;29;20053;-87
2022/05/16 10:42:55;;;;;;;7.25;2.80;;;;;;;24.22;55.66;100596.47;6017298;29;20076;-87
2022/05/16 10:46:08;;;;;;;5.38;2.67;;;;;;;24.24;53.46;100599.69;6014467;29;20161;-87
2022/05/16 10:49:19;;;;;;;5.90;2.88;;;;;;;24.37;51.72;100587.44;6005948;29;20223;-87
2022/05/16 10:52:51;;;;;;;7.50;2.90;;;;;;;24.85;52.99;100593.13;6018377;29;20652;-88
2022/05/16 10:55:57;;;;;;;4.18;2.55;;;;;;;25.51;51.19;100593.66;6001796;29;20041;-87
2022/05/16 10:59:11;;;;;;;6.50;2.95;;;;;;;25.93;48.97;100594.69;6017939;29;20045;-88
2022/05/16 11:02:29;;;;;;;7.25;2.85;;;;;;;26.41;49.01;100585.97;6011876;29;20507;-88
2022/05/16 11:05:50;;;;;;;4.93;2.80;;;;;;;26.90;47.33;100585.09;6039539;29;20621;-88
2022/05/16 11:09:08;;;;;;;3.83;2.40;;;;;;;27.25;46.58;100586.00;6013337;29;20117;-88
2022/05/16 11:12:27;;;;;;;7.18;2.70;;;;;;;27.46;43.17;100584.59;6019401;29;20053;-87
2022/05/16 11:15:42;;;;;;;5.30;2.35;;;;;;;27.81;45.35;100585.63;6024355;29;20139;-88
2022/05/16 11:19:18;;;;;;;6.78;2.90;;;;;;;28.05;41.92;100587.22;6023189;29;20219;-88
2022/05/16 11:22:35;;;;;;;5.57;2.97;;;;;;;27.99;43.28;100588.16;6018713;29;20251;-87
2022/05/16 11:26:03;;;;;;;4.95;2.72;;;;;;;27.90;42.73;100592.22;6020343;29;20055;-88
2022/05/16 11:29:21;;;;;;;6.00;3.13;;;;;;;27.84;43.64;100593.16;6022546;29;20045;-87
2022/05/16 11:32:26;;;;;;;6.55;2.60;;;;;;;27.80;45.91;100594.63;6019506;29;20052;-88
2022/05/16 11:35:55;;;;;;;3.92;2.50;;;;;;;27.64;45.05;100583.66;6015929;29;20060;-87
2022/05/16 11:39:17;;;;;;;7.32;2.47;;;;;;;27.32;44.99;100582.41;6030684;29;20064;-87
2022/05/16 11:43:08;;;;;;;3.88;2.55;;;;;;;27.00;44.98;100588.78;6023146;29;20711;-87
2022/05/16 11:46:23;;;;;;;5.53;2.50;;;;;;;26.69;45.40;100581.94;5962404;29;20058;-87
2022/05/16 11:49:29;;;;;;;6.13;2.88;;;;;;;26.27;48.89;100587.16;5965654;29;20054;-88
2022/05/16 11:53:43;;;;;;;5.78;2.85;;;;;;;25.82;49.04;100582.13;5962441;29;20095;-85
2022/05/16 12:00:32;;;;;;;5.20;2.70;;;;;;;25.28;51.54;100584.47;5966541;29;20505;-87
2022/05/16 12:03:44;;;;;;;11.10;3.20;;;;;;;25.15;54.21;100581.91;5967840;29;20642;-88
2022/05/16 12:06:48;;;;;;;5.85;2.78;;;;;;;25.14;56.68;100589.06;5958383;29;20054;-86
2022/05/16 12:10:10;;;;;;;4.85;2.92;;;;;;;25.25;57.38;100590.22;5966464;29;20887;-87
2022/05/16 12:13:27;;;;;;;6.13;2.83;;;;;;;25.45;54.77;100586.59;5961062;29;20054;-87
2022/05/16 12:16:49;;;;;;;6.07;3.13;;;;;;;25.72;53.98;100579.19;5985824;29;20049;-87
2022/05/16 12:19:52;;;;;;;5.28;2.80;;;;;;;26.08;49.93;100583.69;6024945;29;20095;-87
2022/05/16 12:22:54;;;;;;;4.78;3.05;;;;;;;26.32;52.05;100584.63;6037837;29;20049;-87
2022/05/16 12:25:57;;;;;;;7.60;3.20;;;;;;;26.51;51.10;100576.63;6033366;29;20737;-87
2022/05/16 12:29:14;;;;;;;10.05;3.00;;;;;;;26.61;51.53;100574.28;6025295;29;20053;-87
2022/05/16 12:32:28;;;;;;;5.40;2.72;;;;;;;26.79;51.74;100574.22;6032149;29;20534;-87
2022/05/16 12:35:45;;;;;;;4.47;3.22;;;;;;;27.00;47.97;100578.16;6039043;29;20721;-87
2022/05/16 12:38:52;;;;;;;4.57;2.85;;;;;;;27.12;49.79;100569.41;6027079;29;20212;-87
2022/05/16 12:42:23;;;;;;;4.85;2.83;;;;;;;27.14;52.16;100573.47;6035673;29;20083;-87
2022/05/16 12:45:56;;;;;;;6.53;3.00;;;;;;;27.09;49.23;100578.66;6018475;29;20053;-87
2022/05/16 12:49:36;;;;;;;8.70;3.03;;;;;;;26.92;51.50;100567.09;6038738;29;20049;-87
2022/05/16 12:52:37;;;;;;;4.05;2.60;;;;;;;26.72;50.45;100570.03;6017072;29;20052;-87
2022/05/16 12:56:07;;;;;;;5.35;3.00;;;;;;;26.58;49.69;100556.13;6025128;29;21005;-87
2022/05/16 12:59:35;;;;;;;3.63;2.60;;;;;;;26.43;48.40;100565.31;6009809;29;20411;-87
2022/05/16 13:02:40;;;;;;;3.72;3.03;;;;;;;26.38;50.98;100559.88;6029043;29;20450;-87
2022/05/16 13:05:46;;;;;;;6.03;3.05;;;;;;;26.26;48.47;100556.34;6034504;29;20407;-87
2022/05/16 13:09:29;;;;;;;7.05;2.70;;;;;;;26.20;48.74;100552.72;6007847;29;20132;-87
2022/05/16 13:12:38;;;;;;;7.10;3.00;;;;;;;26.19;48.83;100553.78;6026599;29;20128;-87
2022/05/16 13:16:18;;;;;;;4.40;3.00;;;;;;;26.03;45.99;100558.88;6032462;29;20411;-87
2022/05/16 13:19:24;;;;;;;6.40;2.85;;;;;;;25.66;50.09;100564.94;6029785;29;20053;-86
2022/05/16 13:22:26;;;;;;;6.68;3.03;;;;;;;25.42;49.59;100563.97;6002577;29;20074;-87
2022/05/16 13:25:31;;;;;;;5.75;3.28;;;;;;;25.20;51.01;100565.41;6015074;29;20110;-86
2022/05/16 13:32:14;;;;;;;6.43;2.88;;;;;;;24.60;53.26;100565.78;5957361;29;20704;-87
2022/05/16 13:35:39;;;;;;;9.02;3.38;;;;;;;24.35;54.39;100555.91;5948368;29;20090;-86
2022/05/16 13:38:41;;;;;;;6.55;2.97;;;;;;;24.18;57.51;100554.78;5957714;29;20126;-86
2022/05/16 13:41:44;;;;;;;4.20;2.80;;;;;;;24.07;63.08;100557.06;5955372;29;20130;-86
2022/05/16 13:44:48;;;;;;;5.38;3.65;;;;;;;23.91;61.70;100568.09;5944880;29;20544;-86
2022/05/16 13:47:51;;;;;;;8.65;3.42;;;;;;;23.64;63.70;100568.13;5956751;29;20057;-86
2022/05/16 13:50:53;;;;;;;4.88;2.90;;;;;;;23.18;65.30;100574.25;5957613;29;20107;-85
2022/05/16 13:53:55;;;;;;;6.97;3.30;;;;;;;22.77;69.01;100572.53;5956099;29;20054;-85
2022/05/16 13:57:00;;;;;;;11.07;3.80;;;;;;;22.36;74.91;100586.66;5958225;29;20055;-87
2022/05/16 14:00:23;;;;;;;10.20;4.30;;;;;;;21.84;84.79;100588.00;5961245;29;20504;-89
2022/05/16 14:03:37;;;;;;;10.10;4.55;;;;;;;21.27;95.87;100586.34;5950299;29;20462;-94
2022/05/16 14:06:54;;;;;;;7.13;4.63;;;;;;;20.67;100.00;100571.78;5942147;29;20133;-96
2022/05/16 14:10:02;;;;;;;10.25;4.80;;;;;;;20.34;100.00;100566.94;6024059;29;20057;-96
2022/05/16 14:13:16;;;;;;;12.90;5.75;;;;;;;20.21;100.00;100563.13;6052454;29;20048;-96
2022/05/16 14:16:31;;;;;;;8.75;4.90;;;;;;;20.06;100.00;100562.34;6012123;29;20129;-96
2022/05/16 14:19:37;;;;;;;6.13;5.05;;;;;;;20.01;100.00;100575.22;6038083;29;20077;-96
2022/05/16 14:22:49;;;;;;;8.43;5.13;;;;;;;20.00;100.00;100574.41;6024371;29;20116;-95
2022/05/16 14:26:17;;;;;;;7.25;4.53;;;;;;;20.20;100.00;100573.84;6297035;27;20390;-95
2022/05/16 14:29:32;;;;;;;8.07;5.10;;;;;;;20.44;100.00;100575.34;6283631;28;20040;-95
2022/05/16 14:32:42;;;;;;;9.23;4.70;;;;;;;20.65;100.00;100577.22;6268349;28;20791;-94
2022/05/16 14:36:04;;;;;;;8.25;4.93;;;;;;;20.77;100.00;100586.28;6249647;28;20057;-95
2022/05/16 14:39:13;;;;;;;7.50;5.93;;;;;;;20.90;100.00;100593.47;6289034;28;20049;-92
2022/05/16 14:42:23;;;;;;;7.80;5.18;;;;;;;20.90;100.00;100590.84;6278669;28;20083;-93
2022/05/16 14:46:42;;;;;;;10.07;5.38;;;;;;;20.91;100.00;100584.56;6288826;28;20118;-92
2022/05/16 14:48:48;;;;;;;6.30;4.60;;;;;;;20.98;100.00;100579.38;6263838;28;20044;-92
2022/05/16 14:51:50;;;;;;;7.72;4.88;;;;;;;21.07;100.00;100578.25;6269641;28;20043;-91
2022/05/16 14:55:01;;;;;;;6.50;4.80;;;;;;;21.15;100.00;100579.94;6255003;28;20044;-90
2022/05/16 14:58:05;;;;;;;8.02;4.93;;;;;;;21.20;100.00;100570.47;6280506;28;20041;-90
2022/05/16 15:04:33;;;;;;;8.85;4.60;;;;;;;21.14;100.00;100576.50;6264439;28;20053;-89
2022/05/16 15:07:40;;;;;;;8.70;4.90;;;;;;;21.06;100.00;100569.53;6266730;28;20131;-89